Moose River, Canada
Current Conditions -  °F | °C
As of 12:00 PM on Thursday 23 Oct 2014 (Local Time) from CYMO Reporting Station
Clear Clear  
Wind Chill: 50°   Ceiling: Unl
Heat Index: 50°   Visibility: 9mi
Dew Point: 30°   Wind: 10mph
Humidity: 47%   Direction: 200°SSW
Pressure: 30.11"   Gusts: 18mph
Location:  50.8°N, 81.28°W
Report Text: CYMO 231600Z AUTO 20009G16KT 9SM CLR 10/M01 A3011 RMK SLP197
Loading
Personal Weather Stations






























Interactive Weather Map
Tropical Storm Tracking
New forecast layout! Learn more

10-Day Weather Forecast

Advertisements
Track Severe Weather on mobile